Time;durP1;ratioP1;P1;durP2;ratioP2;P2;SDS_P1;SDS_P2;PMS_P1;PMS_P2;Temp;Humidity;BMP_temperature;BMP_pressure;BME280_temperature;BME280_humidity;BME280_pressure;Samples;Min_cycle;Max_cycle;Signal;HPM_P1;HPM_P2
2024/02/05 00:01:37;;;;;;;0.60;0.20;;;;;;;3.12;98.39;96060.55;109183;1272;22522;-75
2024/02/05 00:04:08;;;;;;;1.20;0.30;;;;;;;3.05;98.40;96067.73;108057;1269;1357234;-75
2024/02/05 00:06:41;;;;;;;0.40;0.10;;;;;;;3.00;98.53;96073.86;109126;1269;22566;-75
2024/02/05 00:09:19;;;;;;;0.60;0.30;;;;;;;3.01;98.57;96074.77;109111;1269;22518;-75
2024/02/05 00:11:52;;;;;;;0.10;0.10;;;;;;;2.97;98.50;96074.40;109087;1272;24193;-75
2024/02/05 00:14:26;;;;;;;0.40;0.20;;;;;;;2.94;98.55;96074.51;109119;1266;24275;-75
2024/02/05 00:17:01;;;;;;;0.20;0.20;;;;;;;2.91;98.53;96078.45;109099;1272;23940;-76
2024/02/05 00:19:32;;;;;;;0.40;0.10;;;;;;;2.91;98.80;96077.72;109137;1269;22578;-75
2024/02/05 00:22:04;;;;;;;0.70;0.20;;;;;;;2.91;98.88;96073.06;109113;1272;23755;-75
2024/02/05 00:24:38;;;;;;;0.30;0.10;;;;;;;2.91;98.98;96070.59;109084;1269;25260;-75
2024/02/05 00:27:12;;;;;;;0.80;0.30;;;;;;;2.89;98.97;96071.73;109120;1272;22517;-75
2024/02/05 00:29:43;;;;;;;0.30;0.10;;;;;;;2.88;98.85;96067.42;109129;1269;22579;-75
2024/02/05 00:32:14;;;;;;;0.40;0.20;;;;;;;2.89;98.94;96062.73;109131;1271;22640;-75
2024/02/05 00:34:48;;;;;;;0.80;0.40;;;;;;;2.86;98.93;96056.71;109153;1272;23261;-75
2024/02/05 00:37:21;;;;;;;0.50;0.20;;;;;;;2.85;99.03;96052.58;109094;1272;24292;-75
2024/02/05 00:39:52;;;;;;;0.10;0.10;;;;;;;2.83;99.18;96049.04;109088;1272;22467;-75
2024/02/05 00:42:28;;;;;;;0.10;0.10;;;;;;;2.83;99.26;96050.10;109122;1272;22520;-75
2024/02/05 00:45:02;;;;;;;0.50;0.20;;;;;;;2.84;99.41;96046.55;109069;1266;22570;-75
2024/02/05 00:47:33;;;;;;;0.90;0.30;;;;;;;2.87;99.54;96050.13;109060;1250;22585;-75
2024/02/05 00:50:10;;;;;;;0.70;0.30;;;;;;;2.92;99.69;96042.39;109108;1272;22583;-75
2024/02/05 00:52:43;;;;;;;1.10;0.30;;;;;;;2.96;99.82;96041.66;109139;1272;22714;-75
2024/02/05 00:55:19;;;;;;;0.30;0.10;;;;;;;3.00;99.85;96040.40;109161;1249;22544;-75
2024/02/05 00:57:51;;;;;;;0.30;0.30;;;;;;;3.02;99.92;96038.02;109127;1269;23098;-75
2024/02/05 01:00:24;;;;;;;0.50;0.20;;;;;;;3.04;99.95;96032.27;109138;1273;22531;-75
2024/02/05 01:02:55;;;;;;;0.20;0.20;;;;;;;3.05;100.00;96024.16;109033;1273;23697;-75
2024/02/05 01:05:29;;;;;;;0.80;0.20;;;;;;;3.09;100.00;96026.77;109092;1266;22833;-75
2024/02/05 01:08:05;;;;;;;0.30;0.10;;;;;;;3.15;100.00;96026.53;109138;1272;23751;-75
2024/02/05 01:10:38;;;;;;;0.40;0.20;;;;;;;3.22;100.00;96027.97;109126;1272;22553;-75
2024/02/05 01:13:12;;;;;;;0.00;0.00;;;;;;;3.24;100.00;96016.54;109138;1269;22513;-75
2024/02/05 01:15:46;;;;;;;0.20;0.10;;;;;;;3.33;100.00;96009.43;109094;1266;23884;-75
2024/02/05 01:18:19;;;;;;;0.80;0.20;;;;;;;3.45;100.00;96017.31;109122;1272;25239;-75
2024/02/05 01:20:52;;;;;;;0.10;0.10;;;;;;;3.45;100.00;96016.38;109115;1250;22517;-75
2024/02/05 01:23:28;;;;;;;0.20;0.10;;;;;;;3.40;100.00;96012.61;109117;1272;24383;-75
2024/02/05 01:26:04;;;;;;;0.40;0.10;;;;;;;3.35;100.00;96017.30;109132;1262;22525;-75
2024/02/05 01:28:38;;;;;;;0.60;0.30;;;;;;;3.33;100.00;96006.29;109122;1272;24160;-75
2024/02/05 01:31:12;;;;;;;0.40;0.20;;;;;;;3.32;100.00;95996.69;109141;1269;22547;-75
2024/02/05 01:33:48;;;;;;;0.40;0.20;;;;;;;3.32;100.00;95999.36;109087;1251;22534;-75
2024/02/05 01:36:21;;;;;;;0.40;0.20;;;;;;;3.32;100.00;96001.20;109086;1266;23617;-75
2024/02/05 01:38:55;;;;;;;0.70;0.30;;;;;;;3.34;100.00;96000.27;109142;1272;22521;-75
2024/02/05 01:41:28;;;;;;;0.20;0.10;;;;;;;3.33;100.00;95988.58;109075;1267;25072;-75
2024/02/05 01:44:01;;;;;;;0.70;0.20;;;;;;;3.31;100.00;95989.77;109098;1272;23087;-76
2024/02/05 01:46:35;;;;;;;0.50;0.30;;;;;;;3.27;100.00;95986.23;109107;1269;22546;-75
2024/02/05 01:49:12;;;;;;;0.30;0.20;;;;;;;3.26;100.00;95984.23;109146;1272;24190;-75
2024/02/05 01:51:51;;;;;;;0.40;0.20;;;;;;;3.24;100.00;95975.35;109137;1272;22518;-75
2024/02/05 01:54:29;;;;;;;0.30;0.20;;;;;;;3.24;100.00;95968.95;109078;1269;22525;-75
2024/02/05 01:57:06;;;;;;;0.30;0.10;;;;;;;3.26;100.00;95958.98;109094;1272;22583;-75
2024/02/05 01:59:44;;;;;;;1.00;0.30;;;;;;;3.27;100.00;95952.02;109135;1272;23041;-75
2024/02/05 02:02:16;;;;;;;0.90;0.30;;;;;;;3.28;100.00;95948.20;109091;1272;22474;-75
2024/02/05 02:04:47;;;;;;;0.60;0.30;;;;;;;3.32;100.00;95955.57;109091;1272;22562;-75
2024/02/05 02:07:19;;;;;;;0.10;0.10;;;;;;;3.37;100.00;95958.21;109107;1265;22454;-75
2024/02/05 02:09:54;;;;;;;0.10;0.10;;;;;;;3.42;100.00;95953.14;109121;1265;22708;-75
2024/02/05 02:12:25;;;;;;;0.60;0.20;;;;;;;3.48;100.00;95953.09;109166;1272;22571;-75
2024/02/05 02:14:57;;;;;;;0.10;0.10;;;;;;;3.50;100.00;95954.94;109164;1269;22610;-75
2024/02/05 02:17:35;;;;;;;0.70;0.40;;;;;;;3.52;100.00;95944.74;109053;1266;22521;-75
2024/02/05 02:20:11;;;;;;;0.10;0.10;;;;;;;3.57;100.00;95942.80;109172;1272;22545;-75
2024/02/05 02:22:55;;;;;;;0.10;0.10;;;;;;;3.58;100.00;95937.25;109194;1266;22493;-75
2024/02/05 02:25:26;;;;;;;0.10;0.10;;;;;;;3.57;100.00;95932.79;109083;1266;22586;-75
2024/02/05 02:27:59;;;;;;;0.40;0.20;;;;;;;3.56;100.00;95923.55;109185;1273;22563;-75
2024/02/05 02:30:34;;;;;;;0.50;0.50;;;;;;;3.54;100.00;95920.20;109160;1269;25420;-75
2024/02/05 02:33:16;;;;;;;0.10;0.10;;;;;;;3.52;100.00;95906.95;109103;1250;22521;-75
2024/02/05 02:35:56;;;;;;;0.60;0.30;;;;;;;3.47;100.00;95903.55;109124;1273;22576;-75
2024/02/05 02:38:34;;;;;;;0.30;0.20;;;;;;;3.46;100.00;95898.30;109049;1272;22514;-74
2024/02/05 02:41:14;;;;;;;3.10;0.80;;;;;;;3.46;100.00;95896.38;109112;1272;22529;-75
2024/02/05 02:43:56;;;;;;;0.30;0.20;;;;;;;3.45;100.00;95907.95;109055;1273;22511;-75
2024/02/05 02:46:31;;;;;;;0.30;0.20;;;;;;;3.45;100.00;95875.81;109049;1273;23868;-75
2024/02/05 02:49:02;;;;;;;0.10;0.10;;;;;;;3.46;100.00;95889.71;109106;1273;24259;-75
2024/02/05 02:51:33;;;;;;;0.40;0.20;;;;;;;3.46;100.00;95890.35;109118;1272;23935;-75
2024/02/05 02:54:06;;;;;;;0.30;0.20;;;;;;;3.45;100.00;95892.28;109111;1273;22855;-75
2024/02/05 02:56:40;;;;;;;0.30;0.20;;;;;;;3.45;100.00;95887.25;109116;1273;22518;-75
2024/02/05 02:59:17;;;;;;;0.10;0.10;;;;;;;3.44;100.00;95881.06;109101;1266;22536;-75
2024/02/05 03:01:49;;;;;;;0.70;0.30;;;;;;;3.44;100.00;95879.38;109128;1272;22522;-75
2024/02/05 03:04:22;;;;;;;1.20;0.30;;;;;;;3.44;100.00;95877.39;109142;1273;22518;-75
2024/02/05 03:06:56;;;;;;;0.50;0.30;;;;;;;3.45;100.00;95871.10;109093;1269;22614;-75
2024/02/05 03:09:28;;;;;;;0.40;0.30;;;;;;;3.46;100.00;95867.60;109144;1273;22525;-75
2024/02/05 03:12:00;;;;;;;0.50;0.10;;;;;;;3.45;100.00;95862.67;109144;1266;23774;-75
2024/02/05 03:14:35;;;;;;;1.30;0.40;;;;;;;3.47;100.00;95854.50;109125;1267;22541;-75
2024/02/05 03:17:09;;;;;;;0.70;0.30;;;;;;;3.47;100.00;95854.40;109097;1272;22542;-75
2024/02/05 03:19:42;;;;;;;0.80;0.80;;;;;;;3.46;100.00;95842.60;109119;1266;22624;-75
2024/02/05 03:22:16;;;;;;;0.30;0.20;;;;;;;3.44;100.00;95836.66;109136;1273;22557;-75
2024/02/05 03:24:47;;;;;;;0.50;0.20;;;;;;;3.42;100.00;95834.56;109123;1272;23794;-75
2024/02/05 03:27:18;;;;;;;0.20;0.10;;;;;;;3.43;100.00;95828.39;109129;1273;22630;-75
2024/02/05 03:29:49;;;;;;;0.60;0.40;;;;;;;3.44;100.00;95823.73;109117;1272;23787;-75
2024/02/05 03:32:27;;;;;;;0.30;0.30;;;;;;;3.44;100.00;95823.95;109113;1272;24188;-75
2024/02/05 03:34:58;;;;;;;0.30;0.20;;;;;;;3.46;100.00;95820.23;109115;1269;22494;-75
2024/02/05 03:37:32;;;;;;;0.30;0.30;;;;;;;3.46;100.00;95817.66;109097;1266;22519;-75
2024/02/05 03:40:05;;;;;;;0.50;0.10;;;;;;;3.49;100.00;95803.15;109100;1272;22682;-75
2024/02/05 03:42:42;;;;;;;0.80;0.10;;;;;;;3.50;100.00;95801.80;109132;1267;22462;-75
2024/02/05 03:45:14;;;;;;;0.30;0.30;;;;;;;3.54;100.00;95790.25;109138;1273;22552;-75
2024/02/05 03:47:45;;;;;;;0.00;0.00;;;;;;;3.61;100.00;95793.17;109126;1270;22535;-75
2024/02/05 03:50:20;;;;;;;0.20;0.10;;;;;;;3.66;100.00;95785.54;109117;1266;22534;-75
2024/02/05 03:52:52;;;;;;;0.20;0.10;;;;;;;3.68;100.00;95784.00;109119;1273;22594;-75
2024/02/05 03:55:30;;;;;;;1.00;0.10;;;;;;;3.69;100.00;95778.39;109125;1266;25019;-75
2024/02/05 03:58:02;;;;;;;0.30;0.20;;;;;;;3.71;100.00;95765.86;109109;1269;24189;-75
2024/02/05 04:00:36;;;;;;;2.00;0.70;;;;;;;3.73;100.00;95760.52;109114;1267;22510;-75
2024/02/05 04:03:09;;;;;;;0.80;0.50;;;;;;;3.81;100.00;95750.81;109093;1272;22664;-75
2024/02/05 04:05:43;;;;;;;0.30;0.20;;;;;;;3.87;100.00;95739.24;109140;1272;23820;-75
2024/02/05 04:08:15;;;;;;;0.30;0.20;;;;;;;3.97;100.00;95746.21;109113;1272;22549;-75
2024/02/05 04:10:47;;;;;;;0.10;0.10;;;;;;;4.01;100.00;95744.16;109132;1272;22517;-74
2024/02/05 04:13:20;;;;;;;0.10;0.10;;;;;;;4.03;100.00;95735.94;109069;1272;24325;-75
2024/02/05 04:15:57;;;;;;;0.00;0.00;;;;;;;4.07;100.00;95738.48;109106;1269;22545;-74
2024/02/05 04:18:36;;;;;;;0.40;0.10;;;;;;;4.11;100.00;95736.45;109099;1268;22557;-75
2024/02/05 04:21:12;;;;;;;0.50;0.10;;;;;;;4.16;100.00;95731.67;109085;1266;25266;-74
2024/02/05 04:23:45;;;;;;;0.10;0.10;;;;;;;4.26;100.00;95719.52;109076;1272;22627;-74
2024/02/05 04:26:19;;;;;;;0.60;0.10;;;;;;;4.32;100.00;95722.79;109108;1272;22980;-74
2024/02/05 04:28:52;;;;;;;0.40;0.30;;;;;;;4.38;100.00;95709.95;109094;1272;22537;-74
2024/02/05 04:31:26;;;;;;;0.50;0.30;;;;;;;4.47;100.00;95714.20;109111;1269;22606;-74
2024/02/05 04:34:00;;;;;;;0.30;0.10;;;;;;;4.55;100.00;95719.27;109109;1272;22984;-74
2024/02/05 04:36:33;;;;;;;0.40;0.20;;;;;;;4.63;100.00;95711.43;109117;1270;25427;-75
2024/02/05 04:39:10;;;;;;;0.80;0.20;;;;;;;4.70;100.00;95713.44;109162;1272;23804;-75
2024/02/05 04:41:44;;;;;;;0.20;0.20;;;;;;;4.77;100.00;95700.98;109083;1270;22520;-75
2024/02/05 04:44:15;;;;;;;0.50;0.40;;;;;;;4.93;100.00;95708.55;109112;1272;24145;-75
2024/02/05 04:46:48;;;;;;;0.10;0.10;;;;;;;4.93;100.00;95707.34;109123;1269;22514;-75
2024/02/05 04:49:20;;;;;;;0.50;0.20;;;;;;;4.96;100.00;95708.23;109103;1272;22476;-75
2024/02/05 04:51:54;;;;;;;0.30;0.20;;;;;;;5.01;100.00;95698.71;109122;1269;23853;-75
2024/02/05 04:54:29;;;;;;;0.20;0.20;;;;;;;5.04;100.00;95701.84;109067;1269;24208;-75
2024/02/05 04:57:00;;;;;;;0.60;0.40;;;;;;;5.10;100.00;95708.90;109140;1272;24218;-74
2024/02/05 04:59:34;;;;;;;0.50;0.20;;;;;;;5.17;100.00;95694.58;109148;1272;22591;-75
2024/02/05 05:02:06;;;;;;;0.30;0.20;;;;;;;5.21;100.00;95695.01;109109;1272;23108;-75
2024/02/05 05:04:42;;;;;;;0.80;0.40;;;;;;;5.30;100.00;95688.04;109103;1272;22594;-75
2024/02/05 05:07:15;;;;;;;0.70;0.30;;;;;;;5.39;100.00;95687.97;109184;1272;22550;-75
2024/02/05 05:09:46;;;;;;;2.20;0.90;;;;;;;5.49;100.00;95679.31;109124;1272;22522;-75
2024/02/05 05:12:21;;;;;;;0.50;0.40;;;;;;;5.54;100.00;95691.13;109080;1271;22535;-75
2024/02/05 05:14:54;;;;;;;0.70;0.50;;;;;;;5.61;100.00;95684.89;109079;1272;22696;-75
2024/02/05 05:17:31;;;;;;;0.50;0.40;;;;;;;5.70;100.00;95688.86;109077;1270;23061;-75
2024/02/05 05:20:05;;;;;;;0.70;0.50;;;;;;;5.84;100.00;95682.60;109062;1270;22525;-75
2024/02/05 05:22:42;;;;;;;0.50;0.40;;;;;;;5.93;100.00;95685.48;109114;1272;22584;-75
2024/02/05 05:25:13;;;;;;;2.10;0.30;;;;;;;5.96;100.00;95679.04;109106;1269;22557;-75
2024/02/05 05:27:44;;;;;;;0.10;0.10;;;;;;;6.03;100.00;95676.42;109108;1272;23970;-75
2024/02/05 05:30:17;;;;;;;0.60;0.30;;;;;;;6.09;100.00;95681.88;109135;1249;22528;-75
2024/02/05 05:32:48;;;;;;;0.90;0.60;;;;;;;6.12;100.00;95680.42;109101;1269;22556;-75
2024/02/05 05:35:19;;;;;;;1.20;0.40;;;;;;;6.18;100.00;95677.13;109098;1273;22527;-75
2024/02/05 05:37:52;;;;;;;1.70;0.40;;;;;;;6.29;100.00;95683.68;109149;1273;24231;-75
2024/02/05 05:40:26;;;;;;;1.50;0.50;;;;;;;6.39;100.00;95668.25;109137;1257;22987;-75
2024/02/05 05:42:59;;;;;;;0.40;0.20;;;;;;;6.49;100.00;95667.12;109081;1272;24279;-75
2024/02/05 05:45:33;;;;;;;1.10;0.40;;;;;;;6.61;100.00;95664.13;109094;1273;24209;-75
2024/02/05 05:48:11;;;;;;;1.50;0.50;;;;;;;6.76;100.00;95681.09;109106;1273;22546;-75
2024/02/05 05:50:47;;;;;;;2.90;0.40;;;;;;;6.78;100.00;95664.95;109116;1272;24174;-75
2024/02/05 05:53:21;;;;;;;0.70;0.40;;;;;;;6.81;100.00;95671.98;109098;1273;22488;-75
2024/02/05 05:55:52;;;;;;;1.00;0.50;;;;;;;6.83;100.00;95667.79;109084;1267;22631;-75
2024/02/05 05:58:25;;;;;;;0.40;0.30;;;;;;;6.88;100.00;95668.10;109094;1273;25599;-75
2024/02/05 06:00:56;;;;;;;0.70;0.30;;;;;;;6.92;100.00;95670.90;109109;1267;23743;-74
2024/02/05 06:03:29;;;;;;;1.10;0.30;;;;;;;6.98;100.00;95667.70;109103;1251;22560;-75
2024/02/05 06:06:04;;;;;;;1.00;0.40;;;;;;;7.07;100.00;95680.91;109054;1267;23712;-75
2024/02/05 06:08:38;;;;;;;0.20;0.10;;;;;;;7.10;100.00;95669.86;109116;1272;22514;-74
2024/02/05 06:11:12;;;;;;;0.60;0.20;;;;;;;7.12;100.00;95677.65;109129;1269;22640;-76
2024/02/05 06:13:44;;;;;;;0.70;0.30;;;;;;;7.16;100.00;95674.70;109096;1273;25139;-75
2024/02/05 06:16:17;;;;;;;0.30;0.10;;;;;;;7.18;100.00;95678.85;109131;1272;22518;-75
2024/02/05 06:18:50;;;;;;;0.80;0.40;;;;;;;7.19;100.00;95678.70;109133;1273;22523;-75
2024/02/05 06:21:22;;;;;;;0.40;0.40;;;;;;;7.27;100.00;95680.92;109068;1273;22518;-75
2024/02/05 06:24:02;;;;;;;0.80;0.30;;;;;;;7.30;100.00;95690.75;109128;1272;22558;-74
2024/02/05 06:26:36;;;;;;;0.30;0.20;;;;;;;7.31;100.00;95678.83;109145;1270;22522;-75
2024/02/05 06:29:08;;;;;;;1.30;0.30;;;;;;;7.34;100.00;95668.30;109103;1272;22518;-75
2024/02/05 06:31:42;;;;;;;0.20;0.10;;;;;;;7.40;100.00;95673.03;109130;1269;22662;-75
2024/02/05 06:34:13;;;;;;;0.20;0.20;;;;;;;7.45;100.00;95671.08;109110;1273;22527;-75
2024/02/05 06:36:43;;;;;;;0.50;0.10;;;;;;;7.48;100.00;95693.59;109125;1272;25467;-75
2024/02/05 06:39:17;;;;;;;0.90;0.30;;;;;;;7.47;100.00;95697.18;109114;1270;22562;-75
2024/02/05 12:12:50;;;;;;;0.30;0.30;;;;;;;8.01;100.00;95837.09;106706;1305;22567;-81
2024/02/05 12:15:19;;;;;;;0.20;0.20;;;;;;;8.02;100.00;95830.88;107731;1282;64824;-73
2024/02/05 12:17:48;;;;;;;0.40;0.20;;;;;;;8.04;100.00;95843.90;107794;1280;22592;-73
2024/02/05 12:20:22;;;;;;;0.60;0.40;;;;;;;8.04;100.00;95833.55;107779;1285;24216;-73
2024/02/05 12:22:51;;;;;;;0.50;0.40;;;;;;;8.04;100.00;95831.45;107791;1279;22655;-73
2024/02/05 12:25:19;;;;;;;0.90;0.30;;;;;;;8.03;100.00;95831.65;107669;1285;25475;-73
2024/02/05 12:27:48;;;;;;;0.90;0.50;;;;;;;8.04;100.00;95840.09;107899;1279;24245;-73
2024/02/05 12:30:17;;;;;;;0.40;0.30;;;;;;;8.06;100.00;95837.55;107866;1275;22686;-74
2024/02/05 12:32:53;;;;;;;0.20;0.20;;;;;;;8.07;100.00;95843.48;108252;1259;24356;-73
2024/02/05 12:35:22;;;;;;;0.50;0.20;;;;;;;8.07;100.00;95844.23;108203;1275;22521;-73
2024/02/05 12:37:53;;;;;;;0.60;0.30;;;;;;;8.08;100.00;95839.73;108379;1278;22546;-74
2024/02/05 12:40:22;;;;;;;1.00;0.40;;;;;;;8.08;100.00;95842.27;108386;1278;23348;-73
2024/02/05 12:42:51;;;;;;;1.50;0.40;;;;;;;8.07;100.00;95836.26;108065;1271;22530;-74
2024/02/05 12:45:22;;;;;;;1.10;0.40;;;;;;;8.11;100.00;95824.33;108366;1278;22538;-73
2024/02/05 12:47:51;;;;;;;0.30;0.30;;;;;;;8.18;100.00;95832.06;108315;1275;22583;-73
2024/02/05 12:50:20;;;;;;;0.80;0.40;;;;;;;8.25;100.00;95836.47;108225;1272;25291;-73
2024/02/05 12:52:50;;;;;;;2.10;0.50;;;;;;;8.32;100.00;95839.63;108198;1273;25383;-72
2024/02/05 12:55:18;;;;;;;0.40;0.20;;;;;;;8.36;100.00;95830.98;108246;1275;22542;-73
2024/02/05 12:57:46;;;;;;;0.20;0.20;;;;;;;8.38;100.00;95820.19;108340;1275;22581;-73
2024/02/05 13:00:18;;;;;;;0.20;0.20;;;;;;;8.43;100.00;95824.03;108315;1271;22548;-73
2024/02/05 13:02:47;;;;;;;0.30;0.30;;;;;;;8.47;99.98;95830.27;108348;1275;22543;-73
2024/02/05 13:05:18;;;;;;;0.80;0.40;;;;;;;8.52;99.82;95833.17;108298;1275;22527;-73
2024/02/05 13:07:53;;;;;;;0.50;0.20;;;;;;;8.52;99.38;95834.43;108325;1278;26472;-73
2024/02/05 13:10:24;;;;;;;0.20;0.20;;;;;;;8.54;99.09;95847.04;108326;1278;22532;-72
2024/02/05 13:12:54;;;;;;;0.40;0.40;;;;;;;8.53;99.10;95852.17;108282;1275;22798;-73
2024/02/05 13:15:25;;;;;;;0.70;0.60;;;;;;;8.54;98.67;95849.73;108169;1275;22542;-73
2024/02/05 13:17:55;;;;;;;1.50;0.80;;;;;;;8.54;97.91;95857.39;108332;1271;22550;-73
2024/02/05 13:20:23;;;;;;;2.20;0.90;;;;;;;8.57;97.34;95850.48;108333;1278;22528;-73
2024/02/05 13:22:51;;;;;;;1.20;1.00;;;;;;;8.57;96.83;95864.47;108297;1278;22637;-73
2024/02/05 13:25:22;;;;;;;1.00;0.60;;;;;;;8.57;96.96;95863.63;108334;1272;22563;-73
2024/02/05 13:27:51;;;;;;;0.90;0.40;;;;;;;8.55;96.78;95866.30;108178;1272;22517;-73
2024/02/05 13:30:21;;;;;;;1.30;0.60;;;;;;;8.53;96.58;95877.42;108272;1271;22938;-73
2024/02/05 13:32:50;;;;;;;1.20;0.50;;;;;;;8.50;96.64;95881.16;108301;1273;25004;-73
2024/02/05 13:35:19;;;;;;;2.30;0.60;;;;;;;8.49;96.73;95899.41;108359;1272;25191;-73
2024/02/05 13:37:48;;;;;;;1.10;0.80;;;;;;;8.49;96.82;95889.16;108368;1275;25341;-72
2024/02/05 13:40:17;;;;;;;0.80;0.60;;;;;;;8.51;96.93;95889.29;108346;1278;23967;-73
2024/02/05 13:42:47;;;;;;;0.70;0.60;;;;;;;8.52;96.92;95875.81;108263;1275;22584;-72
2024/02/05 13:45:16;;;;;;;1.30;0.80;;;;;;;8.57;96.65;95885.09;108577;1274;22518;-72
2024/02/05 13:47:45;;;;;;;0.70;0.50;;;;;;;8.58;96.52;95886.19;108581;1267;22544;-73
2024/02/05 13:50:14;;;;;;;0.80;0.70;;;;;;;8.58;96.42;95891.84;108580;1274;22514;-73
2024/02/05 13:52:43;;;;;;;;;;;;;;;8.59;96.22;95880.69;108667;1267;23037;-72
2024/02/05 13:55:13;;;;;;;0.40;0.40;;;;;;;8.62;95.88;95884.15;108483;1275;22521;-72
2024/02/05 13:57:41;;;;;;;0.80;0.40;;;;;;;8.61;95.72;95882.89;108606;1268;22546;-73
2024/02/05 14:00:13;;;;;;;1.50;0.90;;;;;;;8.58;95.86;95888.34;108624;1274;23052;-73
2024/02/05 14:02:41;;;;;;;1.80;1.00;;;;;;;8.55;96.02;95900.64;108577;1270;22536;-73
2024/02/05 14:05:11;;;;;;;1.80;0.90;;;;;;;8.55;96.26;95888.45;108617;1272;22538;-73
2024/02/05 14:07:39;;;;;;;2.00;0.90;;;;;;;8.55;96.17;95896.05;108636;1272;22531;-73
2024/02/05 14:10:09;;;;;;;1.50;0.80;;;;;;;8.54;96.25;95903.30;108658;1272;22526;-73
2024/02/05 14:12:36;;;;;;;;;;;;;;;8.49;96.68;95897.98;108634;1272;22507;-73
2024/02/05 14:15:07;;;;;;;2.00;1.20;;;;;;;8.44;97.07;95902.73;108678;1274;22527;-73
2024/02/05 14:17:35;;;;;;;1.10;0.50;;;;;;;8.40;97.43;95908.80;108635;1274;22534;-73
2024/02/05 14:20:05;;;;;;;1.40;0.70;;;;;;;8.37;97.47;95913.38;108613;1267;22985;-73
2024/02/05 14:22:35;;;;;;;1.30;0.50;;;;;;;8.35;98.00;95923.86;108656;1270;23426;-73
2024/02/05 14:25:05;;;;;;;0.50;0.40;;;;;;;8.33;98.12;95927.34;108674;1274;25258;-73
2024/02/05 14:27:34;;;;;;;1.50;0.80;;;;;;;8.31;98.12;95946.73;108745;1272;22521;-73
2024/02/05 14:30:02;;;;;;;1.60;0.80;;;;;;;8.28;98.46;95932.08;108711;1274;22626;-73
2024/02/05 14:32:31;;;;;;;1.10;0.60;;;;;;;8.23;98.61;95946.17;108735;1272;24404;-73
2024/02/05 14:34:59;;;;;;;3.30;1.10;;;;;;;8.17;98.93;95940.90;108693;1270;24202;-73
2024/02/05 14:37:28;;;;;;;2.80;1.50;;;;;;;8.11;99.10;95957.11;108754;1274;21761;-73
2024/02/05 14:39:59;;;;;;;1.40;1.10;;;;;;;8.08;99.45;95962.64;108720;1267;22510;-73
2024/02/05 14:42:29;;;;;;;1.80;1.30;;;;;;;8.11;100.00;95968.68;108712;1272;26050;-73
2024/02/05 14:44:58;;;;;;;2.40;1.20;;;;;;;8.13;99.88;95964.91;108691;1272;22561;-73
2024/02/05 14:47:27;;;;;;;2.10;1.20;;;;;;;8.12;99.71;95973.80;108714;1272;22599;-73
2024/02/05 14:49:56;;;;;;;3.20;1.20;;;;;;;8.05;100.00;95968.95;108691;1274;22531;-72
2024/02/05 14:52:24;;;;;;;2.40;0.90;;;;;;;8.01;100.00;95968.27;108694;1274;22477;-72
2024/02/05 14:54:53;;;;;;;4.30;1.50;;;;;;;8.01;100.00;95958.40;108708;1268;22520;-72
2024/02/05 14:57:22;;;;;;;3.30;1.60;;;;;;;8.02;100.00;95951.91;108727;1274;25384;-72
2024/02/05 14:59:50;;;;;;;3.10;1.30;;;;;;;8.02;100.00;95965.85;108717;1267;22548;-72
2024/02/05 15:02:20;;;;;;;3.60;1.90;;;;;;;8.03;100.00;95956.91;108714;1274;23706;-72
2024/02/05 15:04:50;;;;;;;2.70;1.20;;;;;;;8.10;99.91;95962.93;108738;1274;22529;-72
2024/02/05 15:07:19;;;;;;;4.10;1.60;;;;;;;8.12;99.67;95971.98;108708;1274;22528;-72
2024/02/05 15:09:47;;;;;;;3.00;1.50;;;;;;;8.14;99.24;95960.89;108744;1275;22787;-72
2024/02/05 15:12:16;;;;;;;3.00;1.40;;;;;;;8.17;98.82;95962.09;108723;1272;22551;-72
2024/02/05 15:14:45;;;;;;;3.90;1.80;;;;;;;8.15;98.65;95964.10;108743;1272;22534;-72
2024/02/05 15:17:14;;;;;;;6.50;1.70;;;;;;;8.13;98.55;95951.87;108716;1268;25335;-72
2024/02/05 15:19:43;;;;;;;4.50;1.80;;;;;;;8.14;98.36;95954.02;108676;1267;23092;-73
2024/02/05 15:22:12;;;;;;;8.30;3.20;;;;;;;8.15;98.02;95957.12;108685;1251;22521;-72
2024/02/05 15:24:41;;;;;;;3.50;1.40;;;;;;;8.13;97.87;95970.88;108785;1269;23873;-72
2024/02/05 15:27:10;;;;;;;5.30;2.00;;;;;;;8.07;98.05;95966.34;108736;1272;26491;-72
2024/02/05 15:29:39;;;;;;;4.00;1.60;;;;;;;8.04;98.36;95970.17;108686;1274;22518;-73
2024/02/05 15:32:08;;;;;;;4.70;1.70;;;;;;;8.01;98.31;95966.96;108626;1274;22572;-73
2024/02/05 15:34:36;;;;;;;2.60;1.70;;;;;;;7.96;98.46;95972.18;108702;1274;22934;-73
2024/02/05 15:37:05;;;;;;;4.00;1.80;;;;;;;7.92;99.00;95974.97;108763;1274;24224;-72
2024/02/05 15:39:33;;;;;;;6.10;1.80;;;;;;;7.93;99.20;95982.77;108640;1270;22548;-73
2024/02/05 15:42:01;;;;;;;4.10;1.60;;;;;;;7.93;99.19;95983.56;108602;1274;22568;-73
2024/02/05 15:44:32;;;;;;;2.90;1.80;;;;;;;7.97;99.08;95982.89;108666;1272;24269;-72
2024/02/05 15:47:03;;;;;;;4.60;1.60;;;;;;;7.93;98.94;95992.90;108698;1274;22597;-73
2024/02/05 15:49:32;;;;;;;3.80;1.20;;;;;;;7.91;98.95;95995.52;108628;1270;22532;-72
2024/02/05 15:52:02;;;;;;;6.50;2.50;;;;;;;7.90;99.16;95995.20;108598;1275;25410;-72
2024/02/05 15:54:31;;;;;;;3.60;1.80;;;;;;;7.93;99.00;96005.41;108642;1271;22554;-73
2024/02/05 15:57:00;;;;;;;6.70;2.10;;;;;;;7.98;98.53;96011.17;108696;1266;22518;-73
2024/02/05 15:59:28;;;;;;;4.40;2.50;;;;;;;8.00;98.04;96015.42;108762;1274;23481;-73
2024/02/05 16:01:57;;;;;;;5.70;1.70;;;;;;;7.98;98.05;96009.48;108691;1272;22576;-72
2024/02/05 16:04:26;;;;;;;4.20;2.10;;;;;;;8.00;97.93;96005.55;108733;1274;22538;-73
2024/02/05 16:06:54;;;;;;;7.20;3.00;;;;;;;8.08;97.04;96015.55;108788;1274;22524;-72
2024/02/05 16:09:23;;;;;;;5.00;1.90;;;;;;;8.16;95.31;96010.40;108747;1270;22545;-73
2024/02/05 16:11:52;;;;;;;4.90;2.70;;;;;;;8.19;94.93;96015.35;108755;1274;22574;-73
2024/02/05 16:14:20;;;;;;;4.70;2.20;;;;;;;8.16;95.13;96037.80;108763;1270;22564;-73
2024/02/05 16:16:49;;;;;;;4.40;2.20;;;;;;;8.12;95.30;96046.13;108776;1269;22664;-73
2024/02/05 16:19:17;;;;;;;6.70;2.50;;;;;;;8.05;95.53;96055.80;108740;1272;25441;-73
2024/02/05 16:21:45;;;;;;;10.80;2.80;;;;;;;8.00;95.72;96045.05;108746;1267;22745;-73
2024/02/05 16:24:14;;;;;;;5.60;2.20;;;;;;;7.98;95.93;96050.77;108742;1267;23951;-73
2024/02/05 16:26:42;;;;;;;7.40;2.50;;;;;;;7.95;96.06;96060.29;108817;1275;22575;-73
2024/02/05 16:29:11;;;;;;;6.80;2.40;;;;;;;7.92;96.29;96063.23;108801;1272;22541;-72
2024/02/05 16:31:40;;;;;;;9.20;2.90;;;;;;;7.91;96.50;96050.14;108741;1274;22520;-73
2024/02/05 16:34:09;;;;;;;3.80;2.10;;;;;;;7.93;96.35;96052.81;108768;1273;22689;-73
2024/02/05 16:36:37;;;;;;;;;;;;;;;7.94;96.31;96056.13;108779;1275;22528;-73
2024/02/05 16:39:05;;;;;;;10.30;2.70;;;;;;;7.94;96.26;96047.44;108740;1267;22629;-72
2024/02/05 16:41:34;;;;;;;5.10;2.30;;;;;;;7.94;96.13;96053.65;108728;1266;22547;-73
2024/02/05 16:44:04;;;;;;;7.00;3.20;;;;;;;7.97;95.92;96053.68;108856;1274;22712;-73
2024/02/05 16:46:34;;;;;;;5.60;2.40;;;;;;;7.99;95.95;96065.06;108821;1275;22550;-72
2024/02/05 16:49:04;;;;;;;5.50;2.40;;;;;;;8.02;95.49;96055.86;108866;1274;22525;-73
2024/02/05 16:51:33;;;;;;;6.10;2.60;;;;;;;8.07;94.94;96051.72;108825;1274;23068;-73
2024/02/05 16:54:02;;;;;;;;;;;;;;;8.07;94.71;96056.41;108791;1274;22529;-73
2024/02/05 16:56:31;;;;;;;8.80;2.70;;;;;;;8.08;94.35;96058.89;108789;1274;22903;-73
2024/02/05 16:59:00;;;;;;;9.50;2.90;;;;;;;8.09;94.42;96054.65;108773;1274;22537;-73
2024/02/05 17:01:30;;;;;;;4.90;2.40;;;;;;;8.07;94.29;96053.98;108710;1270;24248;-73
2024/02/05 17:03:59;;;;;;;6.30;2.40;;;;;;;8.06;94.15;96043.49;108746;1273;22640;-73
2024/02/05 17:06:28;;;;;;;7.90;3.10;;;;;;;8.09;93.78;96043.20;108794;1271;24213;-73
2024/02/05 17:08:59;;;;;;;8.70;3.90;;;;;;;8.12;93.33;96042.01;108728;1275;22551;-73
2024/02/05 17:11:29;;;;;;;5.20;3.30;;;;;;;8.13;93.11;96042.42;108728;1274;24446;-73
2024/02/05 17:13:57;;;;;;;6.10;3.50;;;;;;;8.12;92.97;96049.08;108650;1272;22644;-73
2024/02/05 17:16:27;;;;;;;8.10;3.50;;;;;;;8.14;92.37;96041.98;108685;1270;22535;-73
2024/02/05 17:18:58;;;;;;;7.40;3.70;;;;;;;8.16;92.32;96036.80;108708;1274;25397;-73
2024/02/05 17:21:27;;;;;;;3.30;2.20;;;;;;;8.16;92.21;96049.05;108635;1274;24302;-73